APJ377 RJBB-ROIG
Flight info
| Callsign | APJ377 |
|---|---|
| Flight time | 2h 21m |
| Altitude | 32000 |
| Route | OBLUR Y236 MULAB Y75 SWANO Y26 YURIX Y62 GANAS Y576 DIANA |
| Aircraft | A320/M-SDE3FGHIRWY/LB1 |
Departure
| Time | 2026-04-30 01:54 |
|---|---|
| Airport | Kansai International Airport (RJBB) |
Arrival
| Time | 2026-04-30 04:16 |
|---|---|
| Airport | New Ishigaki Airport (ROIG) |
| Time | Latitude | Longitude | Altitude | Speed | Heading |
|---|---|---|---|---|---|
| 2026-04-30 01:32 | 34.43526 | 135.23090 | 29 ft | 0 kts | 82° |
| 2026-04-30 01:46 | 34.43526 | 135.23091 | 29 ft | 1 kts | 82° |
| 2026-04-30 01:46 | 34.43508 | 135.23095 | 29 ft | 3 kts | 225° |
| 2026-04-30 01:47 | 34.43505 | 135.23060 | 29 ft | 6 kts | 260° |
| 2026-04-30 01:47 | 34.43484 | 135.23021 | 29 ft | 5 kts | 230° |
| 2026-04-30 01:47 | 34.43481 | 135.22990 | 29 ft | 3 kts | 291° |
| 2026-04-30 01:47 | 34.43497 | 135.22970 | 29 ft | 3 kts | 314° |
| 2026-04-30 01:48 | 34.43483 | 135.22913 | 29 ft | 11 kts | 230° |
| 2026-04-30 01:48 | 34.43437 | 135.22844 | 29 ft | 10 kts | 231° |
| 2026-04-30 01:48 | 34.43418 | 135.22777 | 29 ft | 8 kts | 290° |
| 2026-04-30 01:48 | 34.43466 | 135.22724 | 29 ft | 12 kts | 322° |
| 2026-04-30 01:49 | 34.43545 | 135.22647 | 29 ft | 16 kts | 321° |
| 2026-04-30 01:49 | 34.43634 | 135.22560 | 29 ft | 17 kts | 321° |
| 2026-04-30 01:49 | 34.43728 | 135.22468 | 29 ft | 18 kts | 321° |
| 2026-04-30 01:49 | 34.43797 | 135.22384 | 29 ft | 9 kts | 278° |
| 2026-04-30 01:50 | 34.43768 | 135.22321 | 29 ft | 10 kts | 230° |
| 2026-04-30 01:50 | 34.43709 | 135.22233 | 29 ft | 16 kts | 231° |
| 2026-04-30 01:50 | 34.43644 | 135.22138 | 29 ft | 14 kts | 230° |
| 2026-04-30 01:50 | 34.43587 | 135.22054 | 29 ft | 12 kts | 232° |
| 2026-04-30 01:51 | 34.43521 | 135.21954 | 29 ft | 16 kts | 231° |
| 2026-04-30 01:51 | 34.43453 | 135.21853 | 29 ft | 15 kts | 231° |
| 2026-04-30 01:51 | 34.43386 | 135.21753 | 29 ft | 17 kts | 231° |
| 2026-04-30 01:51 | 34.43317 | 135.21650 | 29 ft | 15 kts | 231° |
| 2026-04-30 01:52 | 34.43254 | 135.21556 | 29 ft | 15 kts | 231° |
| 2026-04-30 01:52 | 34.43180 | 135.21445 | 29 ft | 18 kts | 230° |
| 2026-04-30 01:52 | 34.43104 | 135.21333 | 29 ft | 16 kts | 231° |
| 2026-04-30 01:52 | 34.43038 | 135.21235 | 29 ft | 13 kts | 230° |
| 2026-04-30 01:53 | 34.43037 | 135.21147 | 29 ft | 10 kts | 308° |
| 2026-04-30 01:53 | 34.43088 | 135.21097 | 29 ft | 8 kts | 321° |
| 2026-04-30 01:53 | 34.43128 | 135.21057 | 29 ft | 7 kts | 321° |
| 2026-04-30 01:53 | 34.43158 | 135.21063 | 29 ft | 3 kts | 52° |
| 2026-04-30 01:54 | 34.43198 | 135.21127 | 30 ft | 31 kts | 51° |
| 2026-04-30 01:54 | 34.43495 | 135.21570 | 33 ft | 101 kts | 51° |
| 2026-04-30 01:54 | 34.44067 | 135.22422 | 41 ft | 155 kts | 50° |
| 2026-04-30 01:54 | 34.44739 | 135.23412 | 691 ft | 150 kts | 46° |
| 2026-04-30 01:55 | 34.45657 | 135.23938 | 1346 ft | 153 kts | 0° |
| 2026-04-30 01:55 | 34.46664 | 135.23501 | 1894 ft | 165 kts | 322° |
| 2026-04-30 01:55 | 34.47213 | 135.22187 | 2177 ft | 194 kts | 272° |
| 2026-04-30 01:55 | 34.46998 | 135.20474 | 2434 ft | 219 kts | 257° |
| 2026-04-30 01:56 | 34.46580 | 135.18589 | 2759 ft | 244 kts | 254° |
| 2026-04-30 01:56 | 34.46080 | 135.16525 | 3214 ft | 265 kts | 253° |
| 2026-04-30 01:56 | 34.45554 | 135.14361 | 3989 ft | 271 kts | 253° |
| 2026-04-30 01:56 | 34.45027 | 135.12151 | 4904 ft | 274 kts | 253° |
| 2026-04-30 01:57 | 34.44505 | 135.09928 | 5810 ft | 276 kts | 253° |
| 2026-04-30 01:57 | 34.43989 | 135.07681 | 6677 ft | 278 kts | 253° |
| 2026-04-30 01:57 | 34.43477 | 135.05415 | 7550 ft | 280 kts | 253° |
| 2026-04-30 01:57 | 34.42963 | 135.03135 | 8424 ft | 281 kts | 253° |
| 2026-04-30 01:58 | 34.42446 | 135.00845 | 9267 ft | 283 kts | 253° |
| 2026-04-30 01:58 | 34.41924 | 134.98532 | 10085 ft | 285 kts | 253° |
| 2026-04-30 01:58 | 34.41388 | 134.96158 | 10529 ft | 303 kts | 253° |
| 2026-04-30 01:58 | 34.40809 | 134.93606 | 10784 ft | 324 kts | 253° |
| 2026-04-30 01:59 | 34.38998 | 134.88524 | 12090 ft | 333 kts | 239° |
| 2026-04-30 01:59 | 34.37836 | 134.86081 | 12838 ft | 336 kts | 239° |
| 2026-04-30 01:59 | 34.36685 | 134.83662 | 13587 ft | 336 kts | 239° |
| 2026-04-30 02:00 | 34.35513 | 134.81209 | 14344 ft | 337 kts | 239° |
| 2026-04-30 02:00 | 34.34324 | 134.78726 | 15137 ft | 336 kts | 240° |
| 2026-04-30 02:00 | 34.33154 | 134.76282 | 15911 ft | 335 kts | 240° |
| 2026-04-30 02:00 | 34.32004 | 134.73874 | 16652 ft | 334 kts | 240° |
| 2026-04-30 02:01 | 34.30827 | 134.71407 | 17372 ft | 334 kts | 240° |
| 2026-04-30 02:01 | 34.29682 | 134.69008 | 18058 ft | 334 kts | 241° |
| 2026-04-30 02:01 | 34.28509 | 134.66590 | 18745 ft | 333 kts | 238° |
| 2026-04-30 02:01 | 34.27082 | 134.64372 | 19365 ft | 336 kts | 233° |
| 2026-04-30 02:02 | 34.25575 | 134.62203 | 19936 ft | 338 kts | 232° |
| 2026-04-30 02:02 | 34.24057 | 134.60026 | 20480 ft | 340 kts | 233° |
| 2026-04-30 02:02 | 34.22529 | 134.57832 | 21012 ft | 342 kts | 233° |
| 2026-04-30 02:02 | 34.20993 | 134.55626 | 21536 ft | 344 kts | 233° |
| 2026-04-30 02:03 | 34.19444 | 134.53401 | 22005 ft | 347 kts | 233° |
| 2026-04-30 02:03 | 34.17885 | 134.51159 | 22469 ft | 349 kts | 233° |
| 2026-04-30 02:03 | 34.16317 | 134.48906 | 22958 ft | 351 kts | 233° |
| 2026-04-30 02:03 | 34.14737 | 134.46640 | 23418 ft | 353 kts | 233° |
| 2026-04-30 02:04 | 34.13151 | 134.44365 | 23843 ft | 356 kts | 233° |
| 2026-04-30 02:04 | 34.11552 | 134.42075 | 24271 ft | 357 kts | 233° |
| 2026-04-30 02:04 | 34.09949 | 134.39780 | 24685 ft | 359 kts | 233° |
| 2026-04-30 02:04 | 34.08410 | 134.37578 | 25048 ft | 361 kts | 233° |
| 2026-04-30 02:05 | 34.06786 | 134.35246 | 25417 ft | 363 kts | 233° |
| 2026-04-30 02:05 | 34.05168 | 134.32898 | 25791 ft | 365 kts | 233° |
| 2026-04-30 02:05 | 34.03569 | 134.30564 | 26059 ft | 368 kts | 233° |
| 2026-04-30 02:05 | 34.01935 | 134.28179 | 26408 ft | 369 kts | 233° |
| 2026-04-30 02:06 | 34.00285 | 134.25777 | 26733 ft | 372 kts | 233° |
| 2026-04-30 02:06 | 33.98630 | 134.23373 | 27095 ft | 373 kts | 233° |
| 2026-04-30 02:06 | 33.96966 | 134.20963 | 27426 ft | 375 kts | 233° |
| 2026-04-30 02:06 | 33.95292 | 134.18540 | 27745 ft | 377 kts | 233° |
| 2026-04-30 02:07 | 33.94183 | 134.16935 | 27973 ft | 377 kts | 233° |
| 2026-04-30 02:07 | 33.91944 | 134.13695 | 28413 ft | 380 kts | 233° |
| 2026-04-30 02:07 | 33.90251 | 134.11247 | 28744 ft | 382 kts | 233° |
| 2026-04-30 02:07 | 33.88542 | 134.08782 | 29029 ft | 384 kts | 233° |
| 2026-04-30 02:08 | 33.86822 | 134.06298 | 29308 ft | 386 kts | 233° |
| 2026-04-30 02:08 | 33.85099 | 134.03812 | 29580 ft | 388 kts | 233° |
| 2026-04-30 02:08 | 33.83950 | 134.02155 | 29763 ft | 389 kts | 232° |
| 2026-04-30 02:08 | 33.82213 | 133.99651 | 30040 ft | 391 kts | 232° |
| 2026-04-30 02:09 | 33.80465 | 133.97131 | 30313 ft | 393 kts | 233° |
| 2026-04-30 02:09 | 33.78705 | 133.94597 | 30585 ft | 396 kts | 233° |
| 2026-04-30 02:09 | 33.76931 | 133.92050 | 30883 ft | 397 kts | 233° |
| 2026-04-30 02:09 | 33.75213 | 133.89450 | 31178 ft | 397 kts | 235° |
| 2026-04-30 02:10 | 33.73582 | 133.86781 | 31603 ft | 395 kts | 237° |
| 2026-04-30 02:10 | 33.72003 | 133.84079 | 31983 ft | 394 kts | 237° |
| 2026-04-30 02:10 | 33.70449 | 133.81384 | 32082 ft | 390 kts | 237° |
| 2026-04-30 02:10 | 33.68922 | 133.78752 | 32089 ft | 379 kts | 237° |
| 2026-04-30 02:11 | 33.67410 | 133.76179 | 32090 ft | 376 kts | 237° |
| 2026-04-30 02:11 | 33.64397 | 133.71131 | 32087 ft | 374 kts | 236° |
| 2026-04-30 02:12 | 33.61356 | 133.66073 | 32081 ft | 374 kts | 236° |
| 2026-04-30 02:12 | 33.58308 | 133.61006 | 32081 ft | 374 kts | 236° |
| 2026-04-30 02:13 | 33.55259 | 133.55937 | 32082 ft | 374 kts | 236° |
| 2026-04-30 02:13 | 33.52211 | 133.50875 | 32080 ft | 374 kts | 236° |
| 2026-04-30 02:14 | 33.49167 | 133.45815 | 32082 ft | 374 kts | 236° |
| 2026-04-30 02:14 | 33.46115 | 133.40755 | 32083 ft | 374 kts | 236° |
| 2026-04-30 02:15 | 33.43056 | 133.35708 | 32083 ft | 375 kts | 236° |
| 2026-04-30 02:15 | 33.39914 | 133.30767 | 32081 ft | 376 kts | 233° |
| 2026-04-30 02:16 | 33.36607 | 133.25917 | 32078 ft | 376 kts | 233° |
| 2026-04-30 02:16 | 33.33295 | 133.21083 | 32072 ft | 376 kts | 233° |
| 2026-04-30 02:17 | 33.30006 | 133.16227 | 32066 ft | 376 kts | 233° |
| 2026-04-30 02:17 | 33.26722 | 133.11354 | 32072 ft | 377 kts | 233° |
| 2026-04-30 02:18 | 33.23435 | 133.06481 | 32071 ft | 377 kts | 233° |
| 2026-04-30 02:18 | 33.20143 | 133.01616 | 32076 ft | 376 kts | 233° |
| 2026-04-30 02:19 | 33.16846 | 132.96762 | 32077 ft | 376 kts | 233° |
| 2026-04-30 02:19 | 33.13554 | 132.91922 | 32073 ft | 375 kts | 233° |
| 2026-04-30 02:20 | 33.10259 | 132.87077 | 32071 ft | 376 kts | 233° |
| 2026-04-30 02:20 | 33.06964 | 132.82235 | 32065 ft | 376 kts | 233° |
| 2026-04-30 02:21 | 33.03687 | 132.77430 | 32056 ft | 376 kts | 233° |
| 2026-04-30 02:21 | 33.00285 | 132.72668 | 32056 ft | 377 kts | 230° |
| 2026-04-30 02:22 | 32.96667 | 132.68127 | 32061 ft | 378 kts | 229° |
| 2026-04-30 02:22 | 32.93016 | 132.63627 | 32056 ft | 378 kts | 229° |
| 2026-04-30 02:23 | 32.89392 | 132.59091 | 32046 ft | 378 kts | 229° |
| 2026-04-30 02:23 | 32.85791 | 132.54537 | 32041 ft | 378 kts | 230° |
| 2026-04-30 02:24 | 32.82188 | 132.49977 | 32037 ft | 378 kts | 229° |
| 2026-04-30 02:24 | 32.78602 | 132.45451 | 32036 ft | 379 kts | 229° |
| 2026-04-30 02:25 | 32.74987 | 132.40893 | 32036 ft | 379 kts | 229° |
| 2026-04-30 02:25 | 32.71359 | 132.36333 | 32034 ft | 380 kts | 229° |
| 2026-04-30 02:26 | 32.67727 | 132.31779 | 32032 ft | 380 kts | 229° |
| 2026-04-30 02:26 | 32.64090 | 132.27213 | 32029 ft | 381 kts | 229° |
| 2026-04-30 02:27 | 32.60451 | 132.22651 | 32027 ft | 381 kts | 229° |
| 2026-04-30 02:27 | 32.56800 | 132.18075 | 32025 ft | 381 kts | 229° |
| 2026-04-30 02:28 | 32.53167 | 132.13540 | 32024 ft | 382 kts | 229° |
| 2026-04-30 02:28 | 32.49496 | 132.08965 | 32023 ft | 382 kts | 229° |
| 2026-04-30 02:29 | 32.45719 | 132.04525 | 32019 ft | 386 kts | 221° |
| 2026-04-30 02:29 | 32.41137 | 132.01133 | 32015 ft | 389 kts | 215° |
| 2026-04-30 02:30 | 32.36476 | 131.97852 | 32013 ft | 390 kts | 215° |
| 2026-04-30 02:30 | 32.31812 | 131.94563 | 32013 ft | 390 kts | 215° |
| 2026-04-30 02:31 | 32.27145 | 131.91273 | 32013 ft | 390 kts | 215° |
| 2026-04-30 02:31 | 32.22507 | 131.88001 | 32007 ft | 390 kts | 215° |
| 2026-04-30 02:32 | 32.17835 | 131.84716 | 31998 ft | 391 kts | 215° |
| 2026-04-30 02:32 | 32.13151 | 131.81431 | 31994 ft | 391 kts | 215° |
| 2026-04-30 02:33 | 32.08469 | 131.78143 | 31990 ft | 391 kts | 215° |
| 2026-04-30 02:33 | 32.03791 | 131.74858 | 31988 ft | 391 kts | 215° |
| 2026-04-30 02:34 | 31.99110 | 131.71581 | 31987 ft | 391 kts | 215° |
| 2026-04-30 02:34 | 31.94451 | 131.68328 | 31989 ft | 391 kts | 215° |
| 2026-04-30 02:35 | 31.89767 | 131.65047 | 31991 ft | 392 kts | 215° |
| 2026-04-30 02:35 | 31.85075 | 131.61768 | 31985 ft | 392 kts | 215° |
| 2026-04-30 02:36 | 31.80382 | 131.58496 | 31983 ft | 392 kts | 215° |
| 2026-04-30 02:36 | 31.75685 | 131.55234 | 31988 ft | 392 kts | 215° |
| 2026-04-30 02:37 | 31.70985 | 131.51970 | 31991 ft | 392 kts | 214° |
| 2026-04-30 02:37 | 31.66286 | 131.48707 | 31984 ft | 392 kts | 214° |
| 2026-04-30 02:38 | 31.61586 | 131.45443 | 31989 ft | 392 kts | 214° |
| 2026-04-30 02:38 | 31.56882 | 131.42179 | 31989 ft | 393 kts | 214° |
| 2026-04-30 02:39 | 31.52212 | 131.38953 | 31983 ft | 392 kts | 214° |
| 2026-04-30 02:39 | 31.47504 | 131.35703 | 31976 ft | 393 kts | 214° |
| 2026-04-30 02:40 | 31.42794 | 131.32452 | 31971 ft | 393 kts | 214° |
| 2026-04-30 02:40 | 31.38078 | 131.29200 | 31966 ft | 394 kts | 214° |
| 2026-04-30 02:41 | 31.33356 | 131.25944 | 31964 ft | 394 kts | 214° |
| 2026-04-30 02:41 | 31.28616 | 131.22685 | 31958 ft | 394 kts | 214° |
| 2026-04-30 02:42 | 31.23913 | 131.19457 | 31954 ft | 395 kts | 214° |
| 2026-04-30 02:42 | 31.19178 | 131.16206 | 31952 ft | 395 kts | 214° |
| 2026-04-30 02:43 | 31.14432 | 131.12948 | 31940 ft | 396 kts | 214° |
| 2026-04-30 02:43 | 31.09685 | 131.09697 | 31941 ft | 396 kts | 214° |
| 2026-04-30 02:44 | 31.04923 | 131.06443 | 31936 ft | 396 kts | 214° |
| 2026-04-30 02:44 | 31.00160 | 131.03191 | 31933 ft | 397 kts | 214° |
| 2026-04-30 02:45 | 30.95392 | 130.99935 | 31930 ft | 397 kts | 214° |
| 2026-04-30 02:45 | 30.91424 | 130.97233 | 31926 ft | 398 kts | 214° |
| 2026-04-30 02:46 | 30.87154 | 130.94338 | 31923 ft | 398 kts | 214° |
| 2026-04-30 02:46 | 30.82370 | 130.91085 | 31922 ft | 398 kts | 214° |
| 2026-04-30 02:47 | 30.77576 | 130.87831 | 31912 ft | 399 kts | 214° |
| 2026-04-30 02:47 | 30.72782 | 130.84573 | 31911 ft | 399 kts | 214° |
| 2026-04-30 02:48 | 30.67979 | 130.81312 | 31908 ft | 400 kts | 214° |
| 2026-04-30 02:48 | 30.63166 | 130.78055 | 31906 ft | 401 kts | 214° |
| 2026-04-30 02:49 | 30.58344 | 130.74797 | 31907 ft | 401 kts | 214° |
| 2026-04-30 02:49 | 30.53512 | 130.71534 | 31907 ft | 402 kts | 214° |
| 2026-04-30 02:50 | 30.48670 | 130.68269 | 31906 ft | 403 kts | 214° |
| 2026-04-30 02:50 | 30.43850 | 130.65026 | 31906 ft | 404 kts | 214° |
| 2026-04-30 02:51 | 30.38992 | 130.61752 | 31910 ft | 404 kts | 214° |
| 2026-04-30 02:51 | 30.34126 | 130.58477 | 31910 ft | 405 kts | 214° |
| 2026-04-30 02:52 | 30.29254 | 130.55206 | 31907 ft | 405 kts | 214° |
| 2026-04-30 02:52 | 30.24370 | 130.51936 | 31907 ft | 406 kts | 214° |
| 2026-04-30 02:53 | 30.19470 | 130.48661 | 31908 ft | 406 kts | 214° |
| 2026-04-30 02:53 | 30.14579 | 130.45390 | 31904 ft | 407 kts | 214° |
| 2026-04-30 02:54 | 30.09677 | 130.42114 | 31905 ft | 407 kts | 214° |
| 2026-04-30 02:54 | 30.04797 | 130.38864 | 31906 ft | 408 kts | 214° |
| 2026-04-30 02:55 | 29.99872 | 130.35589 | 31912 ft | 408 kts | 214° |
| 2026-04-30 02:55 | 29.94947 | 130.32311 | 31912 ft | 409 kts | 214° |
| 2026-04-30 02:56 | 29.90018 | 130.29031 | 31912 ft | 409 kts | 214° |
| 2026-04-30 02:56 | 29.85910 | 130.26308 | 31913 ft | 410 kts | 214° |
| 2026-04-30 02:57 | 29.80962 | 130.23039 | 31914 ft | 410 kts | 214° |
| 2026-04-30 02:57 | 29.76007 | 130.19769 | 31915 ft | 410 kts | 214° |
| 2026-04-30 02:58 | 29.71062 | 130.16495 | 31916 ft | 410 kts | 214° |
| 2026-04-30 02:58 | 29.66110 | 130.13221 | 31922 ft | 410 kts | 214° |
| 2026-04-30 02:59 | 29.61157 | 130.09956 | 31923 ft | 410 kts | 214° |
| 2026-04-30 02:59 | 29.56479 | 130.06295 | 31922 ft | 404 kts | 227° |
| 2026-04-30 03:00 | 29.52589 | 130.01646 | 31920 ft | 403 kts | 229° |
| 2026-04-30 03:00 | 29.48735 | 129.97027 | 31932 ft | 403 kts | 229° |
| 2026-04-30 03:01 | 29.44857 | 129.92381 | 31936 ft | 402 kts | 229° |
| 2026-04-30 03:01 | 29.40989 | 129.87750 | 31938 ft | 402 kts | 229° |
| 2026-04-30 03:02 | 29.37113 | 129.83129 | 31925 ft | 402 kts | 229° |
| 2026-04-30 03:02 | 29.33240 | 129.78501 | 31927 ft | 402 kts | 229° |
| 2026-04-30 03:03 | 29.29375 | 129.73885 | 31922 ft | 401 kts | 229° |
| 2026-04-30 03:03 | 29.23567 | 129.66969 | 31927 ft | 401 kts | 229° |
| 2026-04-30 03:04 | 29.19702 | 129.62370 | 31926 ft | 401 kts | 229° |
| 2026-04-30 03:04 | 29.17963 | 129.60304 | 31926 ft | 401 kts | 228° |
| 2026-04-30 03:05 | 29.14114 | 129.55749 | 31926 ft | 400 kts | 228° |
| 2026-04-30 03:05 | 29.10250 | 129.51166 | 31932 ft | 400 kts | 228° |
| 2026-04-30 03:06 | 29.06381 | 129.46575 | 31933 ft | 400 kts | 228° |
| 2026-04-30 03:06 | 29.02511 | 129.41993 | 31925 ft | 400 kts | 228° |
| 2026-04-30 03:07 | 28.98639 | 129.37418 | 31935 ft | 400 kts | 228° |
| 2026-04-30 03:07 | 28.94785 | 129.32831 | 31932 ft | 400 kts | 228° |
| 2026-04-30 03:08 | 28.90947 | 129.28227 | 31930 ft | 400 kts | 229° |
| 2026-04-30 03:08 | 28.87117 | 129.23623 | 31947 ft | 399 kts | 228° |
| 2026-04-30 03:09 | 28.83323 | 129.19076 | 31946 ft | 397 kts | 228° |
| 2026-04-30 03:09 | 28.79513 | 129.14525 | 31943 ft | 396 kts | 228° |
| 2026-04-30 03:10 | 28.75709 | 129.09992 | 31932 ft | 395 kts | 228° |
| 2026-04-30 03:10 | 28.71905 | 129.05469 | 31937 ft | 395 kts | 228° |
| 2026-04-30 03:11 | 28.68110 | 129.00949 | 31931 ft | 394 kts | 228° |
| 2026-04-30 03:11 | 28.64315 | 128.96443 | 31927 ft | 394 kts | 228° |
| 2026-04-30 03:12 | 28.60521 | 128.91935 | 31915 ft | 394 kts | 228° |
| 2026-04-30 03:12 | 28.56726 | 128.87427 | 31910 ft | 394 kts | 228° |
| 2026-04-30 03:13 | 28.52921 | 128.82924 | 31906 ft | 394 kts | 227° |
| 2026-04-30 03:13 | 28.49112 | 128.78432 | 31917 ft | 394 kts | 227° |
| 2026-04-30 03:14 | 28.45332 | 128.73964 | 31914 ft | 394 kts | 227° |
| 2026-04-30 03:14 | 28.41526 | 128.69468 | 31915 ft | 395 kts | 227° |
| 2026-04-30 03:15 | 28.37719 | 128.64974 | 31915 ft | 395 kts | 227° |
| 2026-04-30 03:15 | 28.33909 | 128.60491 | 31920 ft | 395 kts | 227° |
| 2026-04-30 03:16 | 28.30093 | 128.56009 | 31923 ft | 395 kts | 227° |
| 2026-04-30 03:16 | 28.26274 | 128.51521 | 31924 ft | 395 kts | 227° |
| 2026-04-30 03:17 | 28.22461 | 128.47036 | 31923 ft | 395 kts | 227° |
| 2026-04-30 03:17 | 28.18637 | 128.42552 | 31918 ft | 395 kts | 227° |
| 2026-04-30 03:18 | 28.14815 | 128.38066 | 31924 ft | 395 kts | 227° |
| 2026-04-30 03:18 | 28.10986 | 128.33583 | 31925 ft | 396 kts | 227° |
| 2026-04-30 03:19 | 28.07156 | 128.29103 | 31929 ft | 396 kts | 227° |
| 2026-04-30 03:19 | 28.03345 | 128.24666 | 31930 ft | 396 kts | 227° |
| 2026-04-30 03:20 | 27.99505 | 128.20188 | 31931 ft | 396 kts | 227° |
| 2026-04-30 03:20 | 27.95667 | 128.15712 | 31932 ft | 396 kts | 227° |
| 2026-04-30 03:21 | 27.91831 | 128.11246 | 31930 ft | 396 kts | 227° |
| 2026-04-30 03:21 | 27.87990 | 128.06775 | 31925 ft | 396 kts | 227° |
| 2026-04-30 03:22 | 27.84151 | 128.02310 | 31927 ft | 396 kts | 227° |
| 2026-04-30 03:22 | 27.80299 | 127.97850 | 31940 ft | 396 kts | 227° |
| 2026-04-30 03:23 | 27.76449 | 127.93396 | 31940 ft | 396 kts | 227° |
| 2026-04-30 03:23 | 27.72594 | 127.88932 | 31943 ft | 396 kts | 227° |
| 2026-04-30 03:24 | 27.68773 | 127.84504 | 31943 ft | 396 kts | 227° |
| 2026-04-30 03:24 | 27.64924 | 127.80052 | 31935 ft | 396 kts | 227° |
| 2026-04-30 03:25 | 27.61068 | 127.75603 | 31944 ft | 396 kts | 227° |
| 2026-04-30 03:25 | 27.57208 | 127.71160 | 31933 ft | 396 kts | 227° |
| 2026-04-30 03:26 | 27.53349 | 127.66725 | 31952 ft | 396 kts | 227° |
| 2026-04-30 03:26 | 27.49479 | 127.62283 | 31960 ft | 397 kts | 225° |
| 2026-04-30 03:27 | 27.45093 | 127.58485 | 31965 ft | 399 kts | 218° |
| 2026-04-30 03:27 | 27.40586 | 127.54843 | 31967 ft | 399 kts | 218° |
| 2026-04-30 03:28 | 27.36106 | 127.51224 | 31966 ft | 399 kts | 218° |
| 2026-04-30 03:28 | 27.31594 | 127.47582 | 31968 ft | 399 kts | 218° |
| 2026-04-30 03:29 | 27.27077 | 127.43941 | 31970 ft | 399 kts | 218° |
| 2026-04-30 03:29 | 27.22559 | 127.40299 | 31973 ft | 399 kts | 218° |
| 2026-04-30 03:30 | 27.18042 | 127.36662 | 31971 ft | 399 kts | 218° |
| 2026-04-30 03:30 | 27.13526 | 127.33028 | 31974 ft | 400 kts | 218° |
| 2026-04-30 03:31 | 27.08992 | 127.29394 | 31976 ft | 400 kts | 218° |
| 2026-04-30 03:31 | 27.04458 | 127.25764 | 31976 ft | 401 kts | 218° |
| 2026-04-30 03:32 | 26.99926 | 127.22125 | 31980 ft | 400 kts | 218° |
| 2026-04-30 03:32 | 26.95400 | 127.18492 | 31980 ft | 400 kts | 218° |
| 2026-04-30 03:33 | 26.90897 | 127.14895 | 31979 ft | 400 kts | 218° |
| 2026-04-30 03:33 | 26.86361 | 127.11275 | 31974 ft | 400 kts | 218° |
| 2026-04-30 03:34 | 26.81827 | 127.07649 | 31974 ft | 400 kts | 218° |
| 2026-04-30 03:34 | 26.78508 | 127.04998 | 31971 ft | 400 kts | 218° |
| 2026-04-30 03:35 | 26.73965 | 127.01386 | 31975 ft | 400 kts | 218° |
| 2026-04-30 03:35 | 26.69423 | 126.97768 | 31975 ft | 400 kts | 218° |
| 2026-04-30 03:36 | 26.64903 | 126.94177 | 31979 ft | 401 kts | 218° |
| 2026-04-30 03:36 | 26.60362 | 126.90568 | 31983 ft | 401 kts | 218° |
| 2026-04-30 03:37 | 26.55817 | 126.86960 | 31980 ft | 401 kts | 218° |
| 2026-04-30 03:37 | 26.51269 | 126.83355 | 31977 ft | 401 kts | 218° |
| 2026-04-30 03:38 | 26.46721 | 126.79753 | 31978 ft | 401 kts | 218° |
| 2026-04-30 03:38 | 26.42177 | 126.76153 | 31978 ft | 400 kts | 218° |
| 2026-04-30 03:39 | 26.37629 | 126.72568 | 31977 ft | 400 kts | 218° |
| 2026-04-30 03:39 | 26.33217 | 126.68809 | 31974 ft | 399 kts | 221° |
| 2026-04-30 03:40 | 26.28980 | 126.64887 | 31974 ft | 398 kts | 222° |
| 2026-04-30 03:40 | 26.24708 | 126.60942 | 31972 ft | 399 kts | 221° |
| 2026-04-30 03:41 | 26.20408 | 126.57039 | 31978 ft | 399 kts | 221° |
| 2026-04-30 03:41 | 26.16088 | 126.53160 | 31981 ft | 399 kts | 221° |
| 2026-04-30 03:42 | 26.11770 | 126.49275 | 31978 ft | 399 kts | 221° |
| 2026-04-30 03:42 | 26.07484 | 126.45347 | 31982 ft | 399 kts | 222° |
| 2026-04-30 03:43 | 26.03204 | 126.41407 | 31988 ft | 399 kts | 222° |
| 2026-04-30 03:43 | 25.98918 | 126.37484 | 31988 ft | 399 kts | 222° |
| 2026-04-30 03:44 | 25.95349 | 126.34238 | 31987 ft | 399 kts | 221° |
| 2026-04-30 03:44 | 25.91035 | 126.30354 | 31987 ft | 399 kts | 221° |
| 2026-04-30 03:45 | 25.86014 | 126.25847 | 31982 ft | 399 kts | 221° |
| 2026-04-30 03:45 | 25.82430 | 126.22620 | 31986 ft | 399 kts | 221° |
| 2026-04-30 03:46 | 25.78118 | 126.18740 | 31988 ft | 399 kts | 221° |
| 2026-04-30 03:46 | 25.73799 | 126.14871 | 31990 ft | 399 kts | 221° |
| 2026-04-30 03:47 | 25.69487 | 126.10997 | 31989 ft | 398 kts | 221° |
| 2026-04-30 03:47 | 25.65172 | 126.07129 | 31987 ft | 399 kts | 221° |
| 2026-04-30 03:48 | 25.60858 | 126.03274 | 31989 ft | 399 kts | 221° |
| 2026-04-30 03:48 | 25.56556 | 125.99432 | 31804 ft | 402 kts | 221° |
| 2026-04-30 03:49 | 25.54380 | 125.97484 | 31555 ft | 402 kts | 221° |
| 2026-04-30 03:49 | 25.52202 | 125.95530 | 31301 ft | 402 kts | 221° |
| 2026-04-30 03:49 | 25.50025 | 125.93577 | 31059 ft | 404 kts | 221° |
| 2026-04-30 03:49 | 25.47839 | 125.91621 | 30805 ft | 405 kts | 221° |
| 2026-04-30 03:50 | 25.45646 | 125.89656 | 30512 ft | 404 kts | 222° |
| 2026-04-30 03:50 | 25.43656 | 125.87496 | 29971 ft | 398 kts | 231° |
| 2026-04-30 03:50 | 25.42057 | 125.85002 | 29557 ft | 401 kts | 240° |
| 2026-04-30 03:50 | 25.40665 | 125.82301 | 29138 ft | 407 kts | 240° |
| 2026-04-30 03:51 | 25.39251 | 125.79574 | 28707 ft | 409 kts | 240° |
| 2026-04-30 03:51 | 25.37825 | 125.76849 | 28277 ft | 409 kts | 240° |
| 2026-04-30 03:51 | 25.36397 | 125.74139 | 27849 ft | 407 kts | 240° |
| 2026-04-30 03:51 | 25.34976 | 125.71441 | 27420 ft | 405 kts | 240° |
| 2026-04-30 03:52 | 25.33560 | 125.68764 | 26996 ft | 402 kts | 240° |
| 2026-04-30 03:52 | 25.32166 | 125.66145 | 26584 ft | 400 kts | 240° |
| 2026-04-30 03:52 | 25.30757 | 125.63506 | 26166 ft | 398 kts | 240° |
| 2026-04-30 03:52 | 25.29353 | 125.60877 | 25747 ft | 395 kts | 240° |
| 2026-04-30 03:53 | 25.27956 | 125.58265 | 25334 ft | 393 kts | 240° |
| 2026-04-30 03:53 | 25.26568 | 125.55672 | 24922 ft | 391 kts | 240° |
| 2026-04-30 03:53 | 25.25184 | 125.53089 | 24515 ft | 389 kts | 240° |
| 2026-04-30 03:53 | 25.23810 | 125.50523 | 24107 ft | 387 kts | 240° |
| 2026-04-30 03:54 | 25.22445 | 125.47971 | 23702 ft | 385 kts | 240° |
| 2026-04-30 03:54 | 25.21089 | 125.45435 | 23298 ft | 382 kts | 240° |
| 2026-04-30 03:54 | 25.19742 | 125.42919 | 22890 ft | 379 kts | 240° |
| 2026-04-30 03:54 | 25.18402 | 125.40417 | 22502 ft | 377 kts | 240° |
| 2026-04-30 03:55 | 25.17073 | 125.37932 | 22108 ft | 373 kts | 240° |
| 2026-04-30 03:55 | 25.15759 | 125.35475 | 21718 ft | 371 kts | 240° |
| 2026-04-30 03:55 | 25.14448 | 125.33032 | 21330 ft | 368 kts | 240° |
| 2026-04-30 03:55 | 25.13145 | 125.30612 | 20946 ft | 366 kts | 240° |
| 2026-04-30 03:56 | 25.11861 | 125.28236 | 20580 ft | 363 kts | 239° |
| 2026-04-30 03:56 | 25.10309 | 125.26054 | 20232 ft | 362 kts | 230° |
| 2026-04-30 03:56 | 25.08651 | 125.23978 | 19944 ft | 360 kts | 230° |
| 2026-04-30 03:56 | 25.07004 | 125.21911 | 19694 ft | 358 kts | 230° |
| 2026-04-30 03:57 | 25.05358 | 125.19849 | 19443 ft | 357 kts | 230° |
| 2026-04-30 03:57 | 25.03717 | 125.17798 | 19192 ft | 355 kts | 230° |
| 2026-04-30 03:57 | 25.02083 | 125.15759 | 18942 ft | 354 kts | 230° |
| 2026-04-30 03:57 | 25.00460 | 125.13732 | 18691 ft | 352 kts | 231° |
| 2026-04-30 03:58 | 24.98844 | 125.11711 | 18442 ft | 351 kts | 231° |
| 2026-04-30 03:58 | 24.97232 | 125.09697 | 18198 ft | 349 kts | 231° |
| 2026-04-30 03:58 | 24.95625 | 125.07693 | 17939 ft | 348 kts | 230° |
| 2026-04-30 03:58 | 24.94027 | 125.05702 | 17689 ft | 346 kts | 230° |
| 2026-04-30 03:59 | 24.92432 | 125.03719 | 17439 ft | 345 kts | 230° |
| 2026-04-30 03:59 | 24.90866 | 125.01770 | 17192 ft | 343 kts | 230° |
| 2026-04-30 03:59 | 24.89288 | 124.99807 | 16942 ft | 342 kts | 230° |
| 2026-04-30 03:59 | 24.87718 | 124.97851 | 16691 ft | 340 kts | 230° |
| 2026-04-30 04:00 | 24.86135 | 124.95878 | 16437 ft | 339 kts | 230° |
| 2026-04-30 04:00 | 24.84596 | 124.93963 | 16191 ft | 337 kts | 230° |
| 2026-04-30 04:00 | 24.83042 | 124.92033 | 15940 ft | 336 kts | 230° |
| 2026-04-30 04:00 | 24.81497 | 124.90113 | 15693 ft | 335 kts | 230° |
| 2026-04-30 04:01 | 24.79957 | 124.88200 | 15439 ft | 334 kts | 230° |
| 2026-04-30 04:01 | 24.78421 | 124.86291 | 15189 ft | 332 kts | 230° |
| 2026-04-30 04:01 | 24.76892 | 124.84393 | 14939 ft | 331 kts | 230° |
| 2026-04-30 04:01 | 24.75364 | 124.82498 | 14688 ft | 330 kts | 230° |
| 2026-04-30 04:02 | 24.73840 | 124.80611 | 14437 ft | 329 kts | 230° |
| 2026-04-30 04:02 | 24.72324 | 124.78736 | 14187 ft | 327 kts | 230° |
| 2026-04-30 04:02 | 24.70817 | 124.76869 | 13936 ft | 326 kts | 230° |
| 2026-04-30 04:02 | 24.69333 | 124.75028 | 13687 ft | 325 kts | 230° |
| 2026-04-30 04:03 | 24.67837 | 124.73175 | 13439 ft | 323 kts | 230° |
| 2026-04-30 04:03 | 24.66342 | 124.71328 | 13188 ft | 322 kts | 230° |
| 2026-04-30 04:03 | 24.64863 | 124.69500 | 12915 ft | 317 kts | 230° |
| 2026-04-30 04:03 | 24.63409 | 124.67706 | 12504 ft | 312 kts | 230° |
| 2026-04-30 04:04 | 24.61971 | 124.65931 | 12053 ft | 309 kts | 230° |
| 2026-04-30 04:04 | 24.60640 | 124.64283 | 11635 ft | 306 kts | 230° |
| 2026-04-30 04:04 | 24.59233 | 124.62544 | 11184 ft | 303 kts | 229° |
| 2026-04-30 04:04 | 24.57836 | 124.60821 | 10737 ft | 301 kts | 229° |
| 2026-04-30 04:05 | 24.56457 | 124.59118 | 10451 ft | 293 kts | 229° |
| 2026-04-30 04:05 | 24.55133 | 124.57482 | 10322 ft | 281 kts | 229° |
| 2026-04-30 04:05 | 24.53854 | 124.55906 | 10115 ft | 272 kts | 229° |
| 2026-04-30 04:05 | 24.52604 | 124.54365 | 9901 ft | 268 kts | 229° |
| 2026-04-30 04:06 | 24.51364 | 124.52835 | 9773 ft | 268 kts | 229° |
| 2026-04-30 04:06 | 24.50126 | 124.51309 | 9632 ft | 267 kts | 228° |
| 2026-04-30 04:06 | 24.48881 | 124.49778 | 9206 ft | 268 kts | 228° |
| 2026-04-30 04:06 | 24.47639 | 124.48247 | 8734 ft | 269 kts | 228° |
| 2026-04-30 04:07 | 24.46391 | 124.46710 | 8299 ft | 268 kts | 228° |
| 2026-04-30 04:07 | 24.45149 | 124.45186 | 7855 ft | 268 kts | 228° |
| 2026-04-30 04:07 | 24.43935 | 124.43695 | 7509 ft | 263 kts | 228° |
| 2026-04-30 04:08 | 24.41536 | 124.40741 | 6721 ft | 258 kts | 228° |
| 2026-04-30 04:08 | 24.40344 | 124.39271 | 6445 ft | 257 kts | 228° |
| 2026-04-30 04:08 | 24.39156 | 124.37810 | 6145 ft | 256 kts | 228° |
| 2026-04-30 04:08 | 24.37970 | 124.36356 | 5801 ft | 255 kts | 228° |
| 2026-04-30 04:09 | 24.36788 | 124.34914 | 5450 ft | 253 kts | 228° |
| 2026-04-30 04:09 | 24.35616 | 124.33481 | 5099 ft | 252 kts | 228° |
| 2026-04-30 04:09 | 24.34447 | 124.32047 | 4783 ft | 251 kts | 229° |
| 2026-04-30 04:09 | 24.33227 | 124.30724 | 4527 ft | 243 kts | 219° |
| 2026-04-30 04:10 | 24.31878 | 124.29656 | 4277 ft | 235 kts | 217° |
| 2026-04-30 04:10 | 24.30567 | 124.28624 | 4051 ft | 227 kts | 217° |
| 2026-04-30 04:10 | 24.29302 | 124.27628 | 3824 ft | 220 kts | 217° |
| 2026-04-30 04:10 | 24.28102 | 124.26680 | 3586 ft | 206 kts | 217° |
| 2026-04-30 04:11 | 24.26976 | 124.25792 | 3376 ft | 193 kts | 218° |
| 2026-04-30 04:11 | 24.26001 | 124.24814 | 3147 ft | 188 kts | 233° |
| 2026-04-30 04:11 | 24.25374 | 124.23587 | 2923 ft | 184 kts | 249° |
| 2026-04-30 04:11 | 24.25118 | 124.22218 | 2695 ft | 186 kts | 264° |
| 2026-04-30 04:12 | 24.25251 | 124.20802 | 2469 ft | 194 kts | 281° |
| 2026-04-30 04:12 | 24.25810 | 124.19450 | 2311 ft | 194 kts | 301° |
| 2026-04-30 04:12 | 24.26714 | 124.18380 | 2102 ft | 190 kts | 321° |
| 2026-04-30 04:12 | 24.27850 | 124.17682 | 1890 ft | 186 kts | 341° |
| 2026-04-30 04:13 | 24.29083 | 124.17405 | 1710 ft | 178 kts | 0° |
| 2026-04-30 04:13 | 24.30295 | 124.17529 | 1542 ft | 172 kts | 18° |
| 2026-04-30 04:13 | 24.31360 | 124.18036 | 1432 ft | 165 kts | 37° |
| 2026-04-30 04:13 | 24.32305 | 124.18741 | 1377 ft | 164 kts | 39° |
| 2026-04-30 04:14 | 24.33204 | 124.19434 | 1384 ft | 151 kts | 40° |
| 2026-04-30 04:14 | 24.34039 | 124.20088 | 1279 ft | 145 kts | 41° |
| 2026-04-30 04:14 | 24.34834 | 124.20714 | 1131 ft | 136 kts | 34° |
| 2026-04-30 04:14 | 24.35591 | 124.21311 | 961 ft | 133 kts | 33° |
| 2026-04-30 04:15 | 24.36338 | 124.21900 | 791 ft | 132 kts | 34° |
| 2026-04-30 04:15 | 24.37072 | 124.22479 | 622 ft | 132 kts | 34° |
| 2026-04-30 04:15 | 24.37816 | 124.23067 | 458 ft | 132 kts | 34° |
| 2026-04-30 04:15 | 24.38561 | 124.23652 | 258 ft | 131 kts | 34° |
| 2026-04-30 04:16 | 24.39292 | 124.24231 | 115 ft | 116 kts | 35° |
| 2026-04-30 04:16 | 24.39719 | 124.24570 | 100 ft | 51 kts | 36° |
| 2026-04-30 04:16 | 24.39954 | 124.24754 | 104 ft | 25 kts | 36° |
| 2026-04-30 04:16 | 24.39994 | 124.24827 | 108 ft | 9 kts | 112° |
| 2026-04-30 04:17 | 24.39963 | 124.24874 | 109 ft | 6 kts | 126° |
| 2026-04-30 04:17 | 24.39941 | 124.24907 | 109 ft | 4 kts | 126° |
| 2026-04-30 04:17 | 24.39895 | 124.24930 | 109 ft | 10 kts | 192° |
| 2026-04-30 04:17 | 24.39832 | 124.24885 | 104 ft | 12 kts | 216° |
| 2026-04-30 04:18 | 24.39762 | 124.24829 | 103 ft | 13 kts | 216° |
| 2026-04-30 04:18 | 24.39692 | 124.24775 | 104 ft | 11 kts | 217° |
| 2026-04-30 04:18 | 24.39638 | 124.24731 | 106 ft | 8 kts | 216° |
| 2026-04-30 04:18 | 24.39586 | 124.24691 | 106 ft | 15 kts | 216° |
| 2026-04-30 04:19 | 24.39496 | 124.24620 | 111 ft | 14 kts | 216° |
| 2026-04-30 04:19 | 24.39432 | 124.24569 | 116 ft | 10 kts | 216° |
| 2026-04-30 04:19 | 24.39361 | 124.24513 | 115 ft | 16 kts | 216° |
| 2026-04-30 04:19 | 24.39274 | 124.24445 | 116 ft | 14 kts | 216° |
| 2026-04-30 04:20 | 24.39196 | 124.24383 | 114 ft | 13 kts | 216° |
| 2026-04-30 04:20 | 24.39132 | 124.24338 | 116 ft | 8 kts | 186° |
| 2026-04-30 04:20 | 24.39096 | 124.24375 | 116 ft | 7 kts | 126° |
| 2026-04-30 04:20 | 24.39069 | 124.24415 | 116 ft | 6 kts | 126° |
| 2026-04-30 04:21 | 24.39046 | 124.24449 | 114 ft | 3 kts | 126° |
| 2026-04-30 04:21 | 24.39042 | 124.24455 | 117 ft | 0 kts | 126° |